sensor_id;sensor_type;location;lat;lon;timestamp;P1;durP1;ratioP1;P2;durP2;ratioP2
29906;SDS011;16776;50.958;10.994;2023-10-19T00:00:45;4.68;;;3.55;;
29906;SDS011;16776;50.958;10.994;2023-10-19T00:03:14;5.40;;;3.83;;
29906;SDS011;16776;50.958;10.994;2023-10-19T00:05:43;3.88;;;3.47;;
29906;SDS011;16776;50.958;10.994;2023-10-19T00:08:10;4.03;;;3.08;;
29906;SDS011;16776;50.958;10.994;2023-10-19T00:10:40;3.30;;;2.72;;
29906;SDS011;16776;50.958;10.994;2023-10-19T00:13:08;4.00;;;3.13;;
29906;SDS011;16776;50.958;10.994;2023-10-19T00:15:37;3.42;;;2.70;;
29906;SDS011;16776;50.958;10.994;2023-10-19T00:18:06;3.97;;;2.83;;
29906;SDS011;16776;50.958;10.994;2023-10-19T00:20:47;4.13;;;3.33;;
29906;SDS011;16776;50.958;10.994;2023-10-19T00:23:18;4.55;;;3.60;;
29906;SDS011;16776;50.958;10.994;2023-10-19T00:25:49;3.80;;;3.00;;
29906;SDS011;16776;50.958;10.994;2023-10-19T00:28:17;3.65;;;2.72;;
29906;SDS011;16776;50.958;10.994;2023-10-19T00:30:43;3.40;;;3.00;;
29906;SDS011;16776;50.958;10.994;2023-10-19T00:33:10;3.88;;;2.95;;
29906;SDS011;16776;50.958;10.994;2023-10-19T00:35:42;3.88;;;2.78;;
29906;SDS011;16776;50.958;10.994;2023-10-19T00:38:13;3.45;;;3.05;;
29906;SDS011;16776;50.958;10.994;2023-10-19T00:41:03;3.53;;;2.75;;
29906;SDS011;16776;50.958;10.994;2023-10-19T00:43:32;2.70;;;2.50;;
29906;SDS011;16776;50.958;10.994;2023-10-19T00:46:02;5.05;;;3.20;;
29906;SDS011;16776;50.958;10.994;2023-10-19T00:48:32;4.28;;;2.90;;
29906;SDS011;16776;50.958;10.994;2023-10-19T00:50:59;4.53;;;3.35;;
29906;SDS011;16776;50.958;10.994;2023-10-19T00:53:36;4.72;;;2.90;;
29906;SDS011;16776;50.958;10.994;2023-10-19T00:56:04;4.18;;;3.10;;
29906;SDS011;16776;50.958;10.994;2023-10-19T00:58:34;3.95;;;3.28;;
29906;SDS011;16776;50.958;10.994;2023-10-19T01:01:04;5.70;;;4.35;;
29906;SDS011;16776;50.958;10.994;2023-10-19T01:03:32;5.88;;;3.70;;
29906;SDS011;16776;50.958;10.994;2023-10-19T01:06:02;5.18;;;3.92;;
29906;SDS011;16776;50.958;10.994;2023-10-19T01:08:36;5.88;;;4.00;;
29906;SDS011;16776;50.958;10.994;2023-10-19T01:11:08;4.70;;;3.38;;
29906;SDS011;16776;50.958;10.994;2023-10-19T01:13:36;4.43;;;3.03;;
29906;SDS011;16776;50.958;10.994;2023-10-19T01:16:02;4.20;;;3.42;;
29906;SDS011;16776;50.958;10.994;2023-10-19T01:18:30;3.90;;;2.95;;
29906;SDS011;16776;50.958;10.994;2023-10-19T01:20:58;5.25;;;3.38;;
29906;SDS011;16776;50.958;10.994;2023-10-19T01:23:29;3.20;;;2.85;;
29906;SDS011;16776;50.958;10.994;2023-10-19T01:25:57;3.80;;;3.25;;
29906;SDS011;16776;50.958;10.994;2023-10-19T01:28:33;3.60;;;2.78;;
29906;SDS011;16776;50.958;10.994;2023-10-19T01:31:13;3.95;;;3.13;;
29906;SDS011;16776;50.958;10.994;2023-10-19T01:33:47;4.05;;;3.45;;
29906;SDS011;16776;50.958;10.994;2023-10-19T01:36:14;3.92;;;3.53;;
29906;SDS011;16776;50.958;10.994;2023-10-19T01:38:43;5.15;;;3.75;;
29906;SDS011;16776;50.958;10.994;2023-10-19T01:41:09;5.63;;;3.95;;
29906;SDS011;16776;50.958;10.994;2023-10-19T01:43:40;5.30;;;3.78;;
29906;SDS011;16776;50.958;10.994;2023-10-19T01:46:07;5.38;;;3.55;;
29906;SDS011;16776;50.958;10.994;2023-10-19T01:48:38;4.55;;;3.22;;
29906;SDS011;16776;50.958;10.994;2023-10-19T01:51:05;4.53;;;3.08;;
29906;SDS011;16776;50.958;10.994;2023-10-19T01:53:35;4.68;;;3.63;;
29906;SDS011;16776;50.958;10.994;2023-10-19T01:56:06;6.20;;;3.53;;
29906;SDS011;16776;50.958;10.994;2023-10-19T01:58:35;3.35;;;2.70;;
29906;SDS011;16776;50.958;10.994;2023-10-19T02:01:02;3.88;;;3.45;;
29906;SDS011;16776;50.958;10.994;2023-10-19T02:03:33;3.83;;;3.00;;
29906;SDS011;16776;50.958;10.994;2023-10-19T02:06:00;4.25;;;3.08;;
29906;SDS011;16776;50.958;10.994;2023-10-19T02:08:35;4.40;;;3.65;;
29906;SDS011;16776;50.958;10.994;2023-10-19T02:11:03;4.47;;;3.70;;
29906;SDS011;16776;50.958;10.994;2023-10-19T02:13:39;4.88;;;3.50;;
29906;SDS011;16776;50.958;10.994;2023-10-19T02:16:05;2.97;;;2.65;;
29906;SDS011;16776;50.958;10.994;2023-10-19T02:18:32;4.70;;;3.53;;
29906;SDS011;16776;50.958;10.994;2023-10-19T02:20:59;3.20;;;2.90;;
29906;SDS011;16776;50.958;10.994;2023-10-19T02:23:27;4.78;;;3.40;;
29906;SDS011;16776;50.958;10.994;2023-10-19T02:25:53;3.42;;;3.00;;
29906;SDS011;16776;50.958;10.994;2023-10-19T02:28:20;4.15;;;3.35;;
29906;SDS011;16776;50.958;10.994;2023-10-19T02:30:54;4.78;;;3.45;;
29906;SDS011;16776;50.958;10.994;2023-10-19T02:33:19;5.30;;;3.72;;
29906;SDS011;16776;50.958;10.994;2023-10-19T02:35:46;2.88;;;2.55;;
29906;SDS011;16776;50.958;10.994;2023-10-19T02:38:13;2.95;;;2.72;;
29906;SDS011;16776;50.958;10.994;2023-10-19T02:40:39;4.07;;;3.05;;
29906;SDS011;16776;50.958;10.994;2023-10-19T02:43:05;4.13;;;3.47;;
29906;SDS011;16776;50.958;10.994;2023-10-19T02:45:34;4.30;;;3.08;;
29906;SDS011;16776;50.958;10.994;2023-10-19T02:47:59;3.45;;;2.75;;
29906;SDS011;16776;50.958;10.994;2023-10-19T02:50:26;4.28;;;3.22;;
29906;SDS011;16776;50.958;10.994;2023-10-19T02:52:51;4.75;;;3.53;;
29906;SDS011;16776;50.958;10.994;2023-10-19T02:55:18;4.45;;;2.90;;
29906;SDS011;16776;50.958;10.994;2023-10-19T02:57:45;3.85;;;3.05;;
29906;SDS011;16776;50.958;10.994;2023-10-19T03:00:12;5.53;;;3.58;;
29906;SDS011;16776;50.958;10.994;2023-10-19T03:02:40;4.18;;;3.03;;
29906;SDS011;16776;50.958;10.994;2023-10-19T03:05:07;4.22;;;3.10;;
29906;SDS011;16776;50.958;10.994;2023-10-19T03:07:39;2.80;;;2.47;;
29906;SDS011;16776;50.958;10.994;2023-10-19T03:10:08;3.05;;;2.50;;
29906;SDS011;16776;50.958;10.994;2023-10-19T03:12:47;3.08;;;2.58;;
29906;SDS011;16776;50.958;10.994;2023-10-19T03:15:14;5.22;;;3.00;;
29906;SDS011;16776;50.958;10.994;2023-10-19T03:17:41;3.03;;;2.55;;
29906;SDS011;16776;50.958;10.994;2023-10-19T03:20:08;3.00;;;2.58;;
29906;SDS011;16776;50.958;10.994;2023-10-19T03:22:36;3.45;;;2.45;;
29906;SDS011;16776;50.958;10.994;2023-10-19T03:25:03;3.35;;;2.92;;
29906;SDS011;16776;50.958;10.994;2023-10-19T03:27:56;3.38;;;2.55;;
29906;SDS011;16776;50.958;10.994;2023-10-19T03:30:24;4.97;;;2.60;;
29906;SDS011;16776;50.958;10.994;2023-10-19T03:32:53;3.80;;;2.90;;
29906;SDS011;16776;50.958;10.994;2023-10-19T03:35:20;3.85;;;2.67;;
29906;SDS011;16776;50.958;10.994;2023-10-19T03:37:47;3.72;;;2.78;;
29906;SDS011;16776;50.958;10.994;2023-10-19T03:40:16;2.70;;;2.30;;
29906;SDS011;16776;50.958;10.994;2023-10-19T03:42:52;3.50;;;2.60;;
29906;SDS011;16776;50.958;10.994;2023-10-19T03:45:19;3.00;;;2.70;;
29906;SDS011;16776;50.958;10.994;2023-10-19T03:47:49;2.63;;;2.40;;
29906;SDS011;16776;50.958;10.994;2023-10-19T03:50:20;3.03;;;2.42;;
29906;SDS011;16776;50.958;10.994;2023-10-19T03:52:46;2.80;;;2.30;;
29906;SDS011;16776;50.958;10.994;2023-10-19T03:55:13;2.92;;;2.45;;
29906;SDS011;16776;50.958;10.994;2023-10-19T03:57:43;2.85;;;2.22;;
29906;SDS011;16776;50.958;10.994;2023-10-19T04:00:15;2.95;;;2.28;;
29906;SDS011;16776;50.958;10.994;2023-10-19T04:02:47;2.63;;;1.98;;
29906;SDS011;16776;50.958;10.994;2023-10-19T04:05:15;3.33;;;2.13;;
29906;SDS011;16776;50.958;10.994;2023-10-19T04:07:47;3.45;;;2.47;;
29906;SDS011;16776;50.958;10.994;2023-10-19T04:10:19;2.83;;;2.10;;
29906;SDS011;16776;50.958;10.994;2023-10-19T04:12:56;1.73;;;1.60;;
29906;SDS011;16776;50.958;10.994;2023-10-19T04:15:25;1.98;;;1.77;;
29906;SDS011;16776;50.958;10.994;2023-10-19T04:17:53;3.00;;;2.35;;
29906;SDS011;16776;50.958;10.994;2023-10-19T04:20:25;2.42;;;1.95;;
29906;SDS011;16776;50.958;10.994;2023-10-19T04:23:08;1.75;;;1.60;;
29906;SDS011;16776;50.958;10.994;2023-10-19T04:25:39;2.83;;;2.35;;
29906;SDS011;16776;50.958;10.994;2023-10-19T04:28:06;2.20;;;2.00;;
29906;SDS011;16776;50.958;10.994;2023-10-19T04:30:34;4.72;;;2.28;;
29906;SDS011;16776;50.958;10.994;2023-10-19T04:33:02;2.20;;;1.90;;
29906;SDS011;16776;50.958;10.994;2023-10-19T04:35:34;2.17;;;1.90;;
29906;SDS011;16776;50.958;10.994;2023-10-19T04:38:03;1.95;;;1.75;;
29906;SDS011;16776;50.958;10.994;2023-10-19T04:40:32;2.22;;;1.90;;
29906;SDS011;16776;50.958;10.994;2023-10-19T04:43:01;1.85;;;1.67;;
29906;SDS011;16776;50.958;10.994;2023-10-19T04:45:29;2.08;;;1.85;;
29906;SDS011;16776;50.958;10.994;2023-10-19T04:47:55;2.83;;;1.95;;
29906;SDS011;16776;50.958;10.994;2023-10-19T04:50:22;2.25;;;1.60;;
29906;SDS011;16776;50.958;10.994;2023-10-19T04:52:49;2.05;;;1.52;;
29906;SDS011;16776;50.958;10.994;2023-10-19T04:55:15;1.88;;;1.52;;
29906;SDS011;16776;50.958;10.994;2023-10-19T04:57:43;1.60;;;1.50;;
29906;SDS011;16776;50.958;10.994;2023-10-19T05:00:10;1.40;;;1.27;;
29906;SDS011;16776;50.958;10.994;2023-10-19T05:02:38;1.42;;;1.20;;
29906;SDS011;16776;50.958;10.994;2023-10-19T05:05:05;1.50;;;1.33;;
29906;SDS011;16776;50.958;10.994;2023-10-19T05:07:31;1.20;;;1.10;;
29906;SDS011;16776;50.958;10.994;2023-10-19T05:09:58;1.65;;;1.27;;
29906;SDS011;16776;50.958;10.994;2023-10-19T05:12:25;1.67;;;1.10;;
29906;SDS011;16776;50.958;10.994;2023-10-19T05:14:53;1.45;;;0.85;;
29906;SDS011;16776;50.958;10.994;2023-10-19T05:17:20;2.30;;;1.17;;
29906;SDS011;16776;50.958;10.994;2023-10-19T05:19:48;0.90;;;0.80;;
29906;SDS011;16776;50.958;10.994;2023-10-19T05:22:16;1.45;;;1.27;;
29906;SDS011;16776;50.958;10.994;2023-10-19T05:24:43;1.27;;;1.17;;
29906;SDS011;16776;50.958;10.994;2023-10-19T05:27:09;0.70;;;0.70;;
29906;SDS011;16776;50.958;10.994;2023-10-19T05:29:36;0.95;;;0.95;;
29906;SDS011;16776;50.958;10.994;2023-10-19T05:32:05;0.75;;;0.75;;
29906;SDS011;16776;50.958;10.994;2023-10-19T05:34:34;0.60;;;0.60;;
29906;SDS011;16776;50.958;10.994;2023-10-19T05:37:01;0.70;;;0.70;;
29906;SDS011;16776;50.958;10.994;2023-10-19T05:39:30;0.75;;;0.75;;
29906;SDS011;16776;50.958;10.994;2023-10-19T05:41:58;0.90;;;0.85;;
29906;SDS011;16776;50.958;10.994;2023-10-19T05:44:25;1.55;;;1.45;;
29906;SDS011;16776;50.958;10.994;2023-10-19T05:46:52;2.22;;;2.03;;
29906;SDS011;16776;50.958;10.994;2023-10-19T05:49:21;3.22;;;2.70;;
29906;SDS011;16776;50.958;10.994;2023-10-19T05:51:49;2.05;;;1.85;;
29906;SDS011;16776;50.958;10.994;2023-10-19T05:54:15;2.00;;;1.90;;
29906;SDS011;16776;50.958;10.994;2023-10-19T05:56:42;1.73;;;1.60;;
29906;SDS011;16776;50.958;10.994;2023-10-19T05:59:11;1.52;;;1.30;;
29906;SDS011;16776;50.958;10.994;2023-10-19T06:01:38;1.35;;;0.95;;
29906;SDS011;16776;50.958;10.994;2023-10-19T06:04:06;2.58;;;1.65;;
29906;SDS011;16776;50.958;10.994;2023-10-19T06:06:34;2.53;;;2.22;;
29906;SDS011;16776;50.958;10.994;2023-10-19T06:09:01;2.55;;;2.30;;
29906;SDS011;16776;50.958;10.994;2023-10-19T06:11:29;3.50;;;2.95;;
29906;SDS011;16776;50.958;10.994;2023-10-19T06:13:57;4.45;;;3.47;;
29906;SDS011;16776;50.958;10.994;2023-10-19T06:16:24;4.15;;;3.33;;
29906;SDS011;16776;50.958;10.994;2023-10-19T06:18:51;8.18;;;5.18;;
29906;SDS011;16776;50.958;10.994;2023-10-19T06:21:17;12.18;;;6.72;;
29906;SDS011;16776;50.958;10.994;2023-10-19T06:23:46;13.32;;;7.28;;
29906;SDS011;16776;50.958;10.994;2023-10-19T06:26:13;14.73;;;7.18;;
29906;SDS011;16776;50.958;10.994;2023-10-19T06:28:40;11.82;;;6.03;;
29906;SDS011;16776;50.958;10.994;2023-10-19T06:31:06;6.07;;;4.18;;
29906;SDS011;16776;50.958;10.994;2023-10-19T06:33:33;7.35;;;5.18;;
29906;SDS011;16776;50.958;10.994;2023-10-19T06:36:01;6.18;;;5.05;;
29906;SDS011;16776;50.958;10.994;2023-10-19T06:38:29;6.10;;;4.50;;
29906;SDS011;16776;50.958;10.994;2023-10-19T06:40:57;5.38;;;4.25;;
29906;SDS011;16776;50.958;10.994;2023-10-19T06:43:27;6.15;;;4.13;;
29906;SDS011;16776;50.958;10.994;2023-10-19T06:45:55;6.03;;;4.90;;
29906;SDS011;16776;50.958;10.994;2023-10-19T06:48:22;5.90;;;4.85;;
29906;SDS011;16776;50.958;10.994;2023-10-19T06:50:49;6.55;;;4.57;;
29906;SDS011;16776;50.958;10.994;2023-10-19T06:53:15;5.70;;;4.75;;
29906;SDS011;16776;50.958;10.994;2023-10-19T06:55:42;6.07;;;4.72;;
29906;SDS011;16776;50.958;10.994;2023-10-19T06:58:11;4.93;;;4.18;;
29906;SDS011;16776;50.958;10.994;2023-10-19T07:00:39;5.50;;;4.45;;
29906;SDS011;16776;50.958;10.994;2023-10-19T07:03:08;6.43;;;4.20;;
29906;SDS011;16776;50.958;10.994;2023-10-19T07:05:35;5.75;;;4.47;;
29906;SDS011;16776;50.958;10.994;2023-10-19T07:08:01;6.82;;;4.32;;
29906;SDS011;16776;50.958;10.994;2023-10-19T07:10:32;5.40;;;4.13;;
29906;SDS011;16776;50.958;10.994;2023-10-19T07:13:02;6.90;;;4.78;;
29906;SDS011;16776;50.958;10.994;2023-10-19T07:15:30;5.43;;;4.78;;
29906;SDS011;16776;50.958;10.994;2023-10-19T07:17:57;7.05;;;4.85;;
29906;SDS011;16776;50.958;10.994;2023-10-19T07:20:24;5.35;;;4.10;;
29906;SDS011;16776;50.958;10.994;2023-10-19T07:22:54;5.03;;;4.13;;
29906;SDS011;16776;50.958;10.994;2023-10-19T07:25:22;6.53;;;4.30;;
29906;SDS011;16776;50.958;10.994;2023-10-19T07:27:50;5.47;;;4.07;;
29906;SDS011;16776;50.958;10.994;2023-10-19T07:30:18;4.50;;;3.85;;
29906;SDS011;16776;50.958;10.994;2023-10-19T07:32:49;5.10;;;4.03;;
29906;SDS011;16776;50.958;10.994;2023-10-19T07:35:22;6.07;;;4.53;;
29906;SDS011;16776;50.958;10.994;2023-10-19T07:37:51;4.53;;;3.72;;
29906;SDS011;16776;50.958;10.994;2023-10-19T07:40:18;5.05;;;4.28;;
29906;SDS011;16776;50.958;10.994;2023-10-19T07:42:44;6.88;;;4.88;;
29906;SDS011;16776;50.958;10.994;2023-10-19T07:45:11;6.43;;;5.32;;
29906;SDS011;16776;50.958;10.994;2023-10-19T07:47:38;5.72;;;4.90;;
29906;SDS011;16776;50.958;10.994;2023-10-19T07:50:08;7.63;;;5.38;;
29906;SDS011;16776;50.958;10.994;2023-10-19T07:52:37;5.43;;;4.47;;
29906;SDS011;16776;50.958;10.994;2023-10-19T07:55:05;6.40;;;5.07;;
29906;SDS011;16776;50.958;10.994;2023-10-19T07:57:32;6.28;;;4.85;;
29906;SDS011;16776;50.958;10.994;2023-10-19T07:59:59;5.93;;;4.80;;
29906;SDS011;16776;50.958;10.994;2023-10-19T08:02:26;7.45;;;5.63;;
29906;SDS011;16776;50.958;10.994;2023-10-19T08:04:54;6.05;;;4.85;;
29906;SDS011;16776;50.958;10.994;2023-10-19T08:07:22;5.00;;;4.35;;
29906;SDS011;16776;50.958;10.994;2023-10-19T08:09:51;5.00;;;4.15;;
29906;SDS011;16776;50.958;10.994;2023-10-19T08:12:18;5.50;;;4.03;;
29906;SDS011;16776;50.958;10.994;2023-10-19T08:14:44;4.82;;;4.35;;
29906;SDS011;16776;50.958;10.994;2023-10-19T08:17:11;7.85;;;5.03;;
29906;SDS011;16776;50.958;10.994;2023-10-19T08:19:38;6.03;;;4.80;;
29906;SDS011;16776;50.958;10.994;2023-10-19T08:22:05;5.32;;;4.45;;
29906;SDS011;16776;50.958;10.994;2023-10-19T08:24:33;4.25;;;3.63;;
29906;SDS011;16776;50.958;10.994;2023-10-19T08:27:01;4.13;;;3.50;;
29906;SDS011;16776;50.958;10.994;2023-10-19T08:29:30;5.45;;;4.35;;
29906;SDS011;16776;50.958;10.994;2023-10-19T08:31:57;4.13;;;3.70;;
29906;SDS011;16776;50.958;10.994;2023-10-19T08:34:24;6.65;;;4.07;;
29906;SDS011;16776;50.958;10.994;2023-10-19T08:36:50;5.00;;;3.83;;
29906;SDS011;16776;50.958;10.994;2023-10-19T08:39:19;4.80;;;4.03;;
29906;SDS011;16776;50.958;10.994;2023-10-19T08:41:47;6.07;;;3.90;;
29906;SDS011;16776;50.958;10.994;2023-10-19T08:44:18;5.72;;;3.42;;
29906;SDS011;16776;50.958;10.994;2023-10-19T08:46:46;3.70;;;3.10;;
29906;SDS011;16776;50.958;10.994;2023-10-19T08:49:13;4.70;;;3.67;;
29906;SDS011;16776;50.958;10.994;2023-10-19T08:51:42;5.72;;;4.22;;
29906;SDS011;16776;50.958;10.994;2023-10-19T08:54:11;5.05;;;4.25;;
29906;SDS011;16776;50.958;10.994;2023-10-19T08:56:38;4.20;;;3.80;;
29906;SDS011;16776;50.958;10.994;2023-10-19T08:59:07;5.25;;;3.53;;
29906;SDS011;16776;50.958;10.994;2023-10-19T09:01:36;5.10;;;3.40;;
29906;SDS011;16776;50.958;10.994;2023-10-19T09:04:03;4.18;;;2.67;;
29906;SDS011;16776;50.958;10.994;2023-10-19T09:06:31;2.30;;;2.05;;
29906;SDS011;16776;50.958;10.994;2023-10-19T09:09:06;2.40;;;2.13;;
29906;SDS011;16776;50.958;10.994;2023-10-19T09:11:34;1.88;;;1.70;;
29906;SDS011;16776;50.958;10.994;2023-10-19T09:14:01;2.50;;;2.30;;
29906;SDS011;16776;50.958;10.994;2023-10-19T09:16:30;7.15;;;5.30;;
29906;SDS011;16776;50.958;10.994;2023-10-19T09:18:57;8.25;;;5.25;;
29906;SDS011;16776;50.958;10.994;2023-10-19T09:21:23;7.03;;;5.07;;
29906;SDS011;16776;50.958;10.994;2023-10-19T09:23:50;7.68;;;5.22;;
29906;SDS011;16776;50.958;10.994;2023-10-19T09:26:17;6.63;;;4.93;;
29906;SDS011;16776;50.958;10.994;2023-10-19T09:28:46;6.47;;;5.45;;
29906;SDS011;16776;50.958;10.994;2023-10-19T09:31:13;6.80;;;4.85;;
29906;SDS011;16776;50.958;10.994;2023-10-19T09:33:43;4.40;;;3.80;;
29906;SDS011;16776;50.958;10.994;2023-10-19T09:36:10;3.85;;;3.47;;
29906;SDS011;16776;50.958;10.994;2023-10-19T09:38:39;5.57;;;4.65;;
29906;SDS011;16776;50.958;10.994;2023-10-19T09:41:07;6.03;;;4.65;;
29906;SDS011;16776;50.958;10.994;2023-10-19T09:43:39;5.45;;;4.50;;
29906;SDS011;16776;50.958;10.994;2023-10-19T09:46:09;9.85;;;7.07;;
29906;SDS011;16776;50.958;10.994;2023-10-19T09:48:39;7.63;;;5.53;;
29906;SDS011;16776;50.958;10.994;2023-10-19T09:51:09;9.98;;;6.20;;
29906;SDS011;16776;50.958;10.994;2023-10-19T09:53:37;7.13;;;5.57;;
29906;SDS011;16776;50.958;10.994;2023-10-19T09:56:06;8.10;;;6.30;;
29906;SDS011;16776;50.958;10.994;2023-10-19T09:58:35;8.50;;;5.53;;
29906;SDS011;16776;50.958;10.994;2023-10-19T10:01:05;7.10;;;5.82;;
29906;SDS011;16776;50.958;10.994;2023-10-19T10:03:46;8.38;;;6.20;;
29906;SDS011;16776;50.958;10.994;2023-10-19T10:06:16;7.20;;;5.60;;
29906;SDS011;16776;50.958;10.994;2023-10-19T10:08:45;6.60;;;4.90;;
29906;SDS011;16776;50.958;10.994;2023-10-19T10:11:13;5.68;;;4.70;;
29906;SDS011;16776;50.958;10.994;2023-10-19T10:13:42;7.50;;;5.35;;
29906;SDS011;16776;50.958;10.994;2023-10-19T10:16:10;5.60;;;4.88;;
29906;SDS011;16776;50.958;10.994;2023-10-19T10:18:40;7.65;;;5.43;;
29906;SDS011;16776;50.958;10.994;2023-10-19T10:21:07;9.20;;;5.60;;
29906;SDS011;16776;50.958;10.994;2023-10-19T10:23:42;7.88;;;5.13;;
29906;SDS011;16776;50.958;10.994;2023-10-19T10:26:10;8.68;;;5.72;;
29906;SDS011;16776;50.958;10.994;2023-10-19T10:28:36;5.50;;;4.75;;
29906;SDS011;16776;50.958;10.994;2023-10-19T10:31:08;5.70;;;4.82;;
29906;SDS011;16776;50.958;10.994;2023-10-19T10:33:39;6.68;;;4.35;;
29906;SDS011;16776;50.958;10.994;2023-10-19T10:36:07;7.13;;;5.15;;
29906;SDS011;16776;50.958;10.994;2023-10-19T10:38:35;5.97;;;4.60;;
29906;SDS011;16776;50.958;10.994;2023-10-19T10:41:03;6.00;;;4.93;;
29906;SDS011;16776;50.958;10.994;2023-10-19T10:43:46;8.15;;;5.55;;
29906;SDS011;16776;50.958;10.994;2023-10-19T10:46:14;5.00;;;4.47;;
29906;SDS011;16776;50.958;10.994;2023-10-19T10:48:41;6.15;;;4.60;;
29906;SDS011;16776;50.958;10.994;2023-10-19T10:51:14;5.80;;;4.88;;
29906;SDS011;16776;50.958;10.994;2023-10-19T10:53:41;6.40;;;4.50;;
29906;SDS011;16776;50.958;10.994;2023-10-19T10:56:09;5.95;;;4.82;;
29906;SDS011;16776;50.958;10.994;2023-10-19T10:58:37;6.03;;;4.82;;
29906;SDS011;16776;50.958;10.994;2023-10-19T11:01:03;6.45;;;4.85;;
29906;SDS011;16776;50.958;10.994;2023-10-19T11:03:33;4.90;;;4.32;;
29906;SDS011;16776;50.958;10.994;2023-10-19T11:06:03;6.90;;;4.55;;
29906;SDS011;16776;50.958;10.994;2023-10-19T11:08:33;6.80;;;5.22;;
29906;SDS011;16776;50.958;10.994;2023-10-19T11:11:03;6.22;;;5.38;;
29906;SDS011;16776;50.958;10.994;2023-10-19T11:13:32;5.70;;;4.85;;
29906;SDS011;16776;50.958;10.994;2023-10-19T11:16:00;5.85;;;4.88;;
29906;SDS011;16776;50.958;10.994;2023-10-19T11:18:29;6.47;;;5.28;;
29906;SDS011;16776;50.958;10.994;2023-10-19T11:20:57;5.50;;;4.72;;
29906;SDS011;16776;50.958;10.994;2023-10-19T11:23:36;5.67;;;4.63;;
29906;SDS011;16776;50.958;10.994;2023-10-19T11:26:03;6.40;;;4.78;;
29906;SDS011;16776;50.958;10.994;2023-10-19T11:28:30;4.85;;;4.35;;
29906;SDS011;16776;50.958;10.994;2023-10-19T11:31:12;6.22;;;4.63;;
29906;SDS011;16776;50.958;10.994;2023-10-19T11:33:40;6.50;;;4.72;;
29906;SDS011;16776;50.958;10.994;2023-10-19T11:36:07;6.18;;;5.07;;
29906;SDS011;16776;50.958;10.994;2023-10-19T11:38:35;5.72;;;4.60;;
29906;SDS011;16776;50.958;10.994;2023-10-19T11:41:02;5.82;;;4.60;;
29906;SDS011;16776;50.958;10.994;2023-10-19T11:43:29;6.20;;;4.43;;
29906;SDS011;16776;50.958;10.994;2023-10-19T11:45:57;5.28;;;4.40;;
29906;SDS011;16776;50.958;10.994;2023-10-19T11:48:24;5.07;;;4.40;;
29906;SDS011;16776;50.958;10.994;2023-10-19T11:50:51;7.45;;;4.43;;
29906;SDS011;16776;50.958;10.994;2023-10-19T11:53:18;7.93;;;5.05;;
29906;SDS011;16776;50.958;10.994;2023-10-19T11:55:45;6.88;;;4.38;;
29906;SDS011;16776;50.958;10.994;2023-10-19T11:58:13;5.03;;;4.18;;
29906;SDS011;16776;50.958;10.994;2023-10-19T12:00:40;5.22;;;3.97;;
29906;SDS011;16776;50.958;10.994;2023-10-19T12:03:10;5.47;;;3.92;;
29906;SDS011;16776;50.958;10.994;2023-10-19T12:05:37;4.97;;;3.97;;
29906;SDS011;16776;50.958;10.994;2023-10-19T12:08:04;4.43;;;3.92;;
29906;SDS011;16776;50.958;10.994;2023-10-19T12:10:32;5.25;;;4.00;;
29906;SDS011;16776;50.958;10.994;2023-10-19T12:13:00;4.72;;;3.03;;
29906;SDS011;16776;50.958;10.994;2023-10-19T12:15:29;4.15;;;3.38;;
29906;SDS011;16776;50.958;10.994;2023-10-19T12:17:57;3.28;;;2.97;;
29906;SDS011;16776;50.958;10.994;2023-10-19T12:20:25;4.45;;;3.75;;
29906;SDS011;16776;50.958;10.994;2023-10-19T12:22:52;5.75;;;3.65;;
29906;SDS011;16776;50.958;10.994;2023-10-19T12:25:20;4.45;;;3.83;;
29906;SDS011;16776;50.958;10.994;2023-10-19T12:27:53;5.07;;;4.57;;
29906;SDS011;16776;50.958;10.994;2023-10-19T12:30:20;5.75;;;4.40;;
29906;SDS011;16776;50.958;10.994;2023-10-19T12:32:50;5.18;;;3.80;;
29906;SDS011;16776;50.958;10.994;2023-10-19T12:35:17;5.20;;;3.88;;
29906;SDS011;16776;50.958;10.994;2023-10-19T12:37:46;4.03;;;3.53;;
29906;SDS011;16776;50.958;10.994;2023-10-19T12:40:16;4.70;;;3.63;;
29906;SDS011;16776;50.958;10.994;2023-10-19T12:42:56;5.05;;;3.78;;
29906;SDS011;16776;50.958;10.994;2023-10-19T12:45:24;3.83;;;3.50;;
29906;SDS011;16776;50.958;10.994;2023-10-19T12:47:51;5.30;;;3.97;;
29906;SDS011;16776;50.958;10.994;2023-10-19T12:50:18;4.93;;;3.80;;
29906;SDS011;16776;50.958;10.994;2023-10-19T12:52:49;4.25;;;3.63;;
29906;SDS011;16776;50.958;10.994;2023-10-19T12:55:15;4.75;;;4.10;;
29906;SDS011;16776;50.958;10.994;2023-10-19T12:57:42;4.40;;;4.00;;
29906;SDS011;16776;50.958;10.994;2023-10-19T13:00:09;4.20;;;3.40;;
29906;SDS011;16776;50.958;10.994;2023-10-19T13:02:51;3.90;;;3.50;;
29906;SDS011;16776;50.958;10.994;2023-10-19T13:05:24;4.88;;;4.15;;
29906;SDS011;16776;50.958;10.994;2023-10-19T13:07:53;6.63;;;4.47;;
29906;SDS011;16776;50.958;10.994;2023-10-19T13:10:23;4.47;;;3.65;;
29906;SDS011;16776;50.958;10.994;2023-10-19T13:12:55;4.50;;;4.03;;
29906;SDS011;16776;50.958;10.994;2023-10-19T13:15:21;3.78;;;3.47;;
29906;SDS011;16776;50.958;10.994;2023-10-19T13:17:51;5.00;;;3.72;;
29906;SDS011;16776;50.958;10.994;2023-10-19T13:20:18;3.83;;;3.42;;
29906;SDS011;16776;50.958;10.994;2023-10-19T13:22:44;5.05;;;4.32;;
29906;SDS011;16776;50.958;10.994;2023-10-19T13:25:13;4.68;;;3.92;;
29906;SDS011;16776;50.958;10.994;2023-10-19T13:27:42;3.90;;;3.60;;
29906;SDS011;16776;50.958;10.994;2023-10-19T13:30:11;4.45;;;3.53;;
29906;SDS011;16776;50.958;10.994;2023-10-19T13:32:39;3.50;;;3.08;;
29906;SDS011;16776;50.958;10.994;2023-10-19T13:35:07;3.17;;;2.88;;
29906;SDS011;16776;50.958;10.994;2023-10-19T13:37:34;3.55;;;3.03;;
29906;SDS011;16776;50.958;10.994;2023-10-19T13:40:02;4.25;;;2.60;;
29906;SDS011;16776;50.958;10.994;2023-10-19T13:42:32;2.28;;;2.08;;
29906;SDS011;16776;50.958;10.994;2023-10-19T13:44:59;3.28;;;1.75;;
29906;SDS011;16776;50.958;10.994;2023-10-19T13:47:26;1.80;;;1.55;;
29906;SDS011;16776;50.958;10.994;2023-10-19T13:49:53;2.63;;;2.08;;
29906;SDS011;16776;50.958;10.994;2023-10-19T13:52:20;1.75;;;1.48;;
29906;SDS011;16776;50.958;10.994;2023-10-19T13:54:46;2.42;;;1.77;;
29906;SDS011;16776;50.958;10.994;2023-10-19T13:57:13;2.08;;;1.85;;
29906;SDS011;16776;50.958;10.994;2023-10-19T13:59:41;2.85;;;2.50;;
29906;SDS011;16776;50.958;10.994;2023-10-19T14:02:07;4.30;;;3.13;;
29906;SDS011;16776;50.958;10.994;2023-10-19T14:04:35;4.53;;;3.03;;
29906;SDS011;16776;50.958;10.994;2023-10-19T14:07:02;3.53;;;2.90;;
29906;SDS011;16776;50.958;10.994;2023-10-19T14:09:29;2.95;;;2.65;;
29906;SDS011;16776;50.958;10.994;2023-10-19T14:11:56;4.53;;;3.17;;
29906;SDS011;16776;50.958;10.994;2023-10-19T14:14:29;2.40;;;2.15;;
29906;SDS011;16776;50.958;10.994;2023-10-19T14:16:57;2.88;;;2.10;;
29906;SDS011;16776;50.958;10.994;2023-10-19T14:19:23;3.00;;;1.30;;
29906;SDS011;16776;50.958;10.994;2023-10-19T14:21:50;0.75;;;0.73;;
29906;SDS011;16776;50.958;10.994;2023-10-19T14:24:17;1.13;;;0.75;;
29906;SDS011;16776;50.958;10.994;2023-10-19T14:26:45;0.80;;;0.63;;
29906;SDS011;16776;50.958;10.994;2023-10-19T14:29:12;0.60;;;0.60;;
29906;SDS011;16776;50.958;10.994;2023-10-19T14:31:39;0.75;;;0.75;;
29906;SDS011;16776;50.958;10.994;2023-10-19T14:34:08;2.13;;;1.00;;
29906;SDS011;16776;50.958;10.994;2023-10-19T14:36:34;0.60;;;0.60;;
29906;SDS011;16776;50.958;10.994;2023-10-19T14:39:01;1.65;;;0.60;;
29906;SDS011;16776;50.958;10.994;2023-10-19T14:41:28;0.63;;;0.60;;